Time;durP1;ratioP1;P1;durP2;ratioP2;P2;SDS_P1;SDS_P2;PMS_P1;PMS_P2;Temp;Humidity;BMP_temperature;BMP_pressure;BME280_temperature;BME280_humidity;BME280_pressure;Samples;Min_cycle;Max_cycle;Signal;HPM_P1;HPM_P2
2021/07/04 00:03:54;;;;;;;0.10;0.10;;;;;;;10.86;89.79;101393.13;10367847;28;20668;-63
2021/07/04 00:08:55;;;;;;;0.10;0.10;;;;;;;10.85;90.62;101396.78;10375137;28;20465;-63
2021/07/04 00:13:55;;;;;;;0.10;0.10;;;;;;;10.83;90.12;101387.25;10374568;28;20377;-63
2021/07/04 00:18:55;;;;;;;0.10;0.10;;;;;;;10.78;90.46;101392.16;10374961;28;20789;-61
2021/07/04 00:23:56;;;;;;;0.10;0.10;;;;;;;10.74;90.69;101394.28;10374309;28;20112;-62
2021/07/04 00:28:57;;;;;;;0.10;0.10;;;;;;;10.70;91.73;101384.91;10374258;28;20022;-61
2021/07/04 00:33:57;;;;;;;0.10;0.10;;;;;;;10.62;91.37;101380.31;10374032;28;20030;-63
2021/07/04 00:38:57;;;;;;;0.10;0.10;;;;;;;10.55;91.91;101389.03;10373867;28;20029;-62
2021/07/04 00:43:57;;;;;;;0.10;0.10;;;;;;;10.50;92.77;101386.81;10373420;28;20036;-61
2021/07/04 00:48:59;;;;;;;0.00;0.00;;;;;;;10.57;93.46;101381.75;10373721;28;20033;-62
2021/07/04 00:54:00;;;;;;;0.10;0.10;;;;;;;10.59;93.16;101374.44;10373068;28;20036;-63
2021/07/04 00:59:00;;;;;;;0.10;0.10;;;;;;;10.56;92.95;101370.25;10373023;28;20432;-63
2021/07/04 01:04:00;;;;;;;0.10;0.10;;;;;;;10.49;93.44;101368.31;10355135;28;20080;-61
2021/07/04 01:09:01;;;;;;;0.10;0.10;;;;;;;10.43;93.26;101370.56;10375290;28;20104;-61
2021/07/04 01:14:01;;;;;;;0.10;0.10;;;;;;;10.30;93.06;101375.38;10378152;28;20038;-61
2021/07/04 01:19:02;;;;;;;0.10;0.10;;;;;;;10.25;93.13;101366.94;10371709;28;20029;-62
2021/07/04 01:24:03;;;;;;;0.10;0.10;;;;;;;10.25;93.31;101369.59;10371843;28;20269;-63
2021/07/04 01:29:03;;;;;;;0.10;0.10;;;;;;;10.18;93.35;101368.47;10371810;28;20029;-61
2021/07/04 01:34:04;;;;;;;0.00;0.00;;;;;;;10.16;93.03;101373.13;10372388;28;20087;-63
2021/07/04 01:39:05;;;;;;;0.00;0.00;;;;;;;10.18;93.83;101365.81;10372574;28;20469;-63
2021/07/04 01:44:06;;;;;;;0.00;0.00;;;;;;;10.20;94.35;101363.84;10371396;28;20030;-62
2021/07/04 01:49:06;;;;;;;0.10;0.10;;;;;;;10.30;95.09;101359.41;10371077;28;20025;-62
2021/07/04 01:54:06;;;;;;;0.10;0.10;;;;;;;10.38;95.41;101358.66;10370864;28;20038;-62
2021/07/04 01:59:07;;;;;;;0.10;0.10;;;;;;;10.39;95.15;101358.53;10370927;28;20269;-62
2021/07/04 02:04:07;;;;;;;0.10;0.10;;;;;;;10.37;94.71;101341.00;10370389;28;20271;-62
2021/07/04 02:09:08;;;;;;;0.10;0.10;;;;;;;10.30;94.19;101338.09;10370487;28;20053;-62
2021/07/04 02:14:08;;;;;;;0.10;0.10;;;;;;;10.25;94.70;101334.16;10370043;28;20060;-61
2021/07/04 02:19:08;;;;;;;0.10;0.10;;;;;;;10.29;94.95;101340.88;10352728;28;20018;-62
2021/07/04 02:24:09;;;;;;;0.10;0.10;;;;;;;10.33;94.87;101344.97;10369892;28;20037;-62
2021/07/04 02:29:09;;;;;;;0.10;0.10;;;;;;;10.34;94.65;101351.94;10369524;28;20021;-62
2021/07/04 02:34:09;;;;;;;0.00;0.00;;;;;;;10.29;94.73;101352.38;10369638;28;20117;-62
2021/07/04 02:39:13;;;;;;;0.10;0.10;;;;;;;10.23;94.32;101346.75;10353717;28;20283;-62
2021/07/04 02:44:13;;;;;;;0.10;0.10;;;;;;;10.22;94.30;101340.59;10370186;28;20273;-62
2021/07/04 02:49:14;;;;;;;0.10;0.10;;;;;;;10.21;94.48;101341.59;10368358;28;20037;-60
2021/07/04 02:54:14;;;;;;;0.10;0.10;;;;;;;10.12;93.60;101340.63;10368382;28;20041;-62
2021/07/04 02:59:15;;;;;;;0.10;0.10;;;;;;;10.04;94.37;101358.31;10368643;28;20038;-62
2021/07/04 03:04:15;;;;;;;0.00;0.00;;;;;;;9.99;94.31;101353.41;10367919;28;20363;-62
2021/07/04 03:09:15;;;;;;;0.10;0.10;;;;;;;10.06;94.90;101356.31;10368338;28;20374;-62
2021/07/04 03:14:15;;;;;;;0.10;0.10;;;;;;;10.15;94.86;101352.78;10350685;28;20041;-62
2021/07/04 03:19:16;;;;;;;0.07;0.07;;;;;;;10.31;94.00;101355.75;10368842;28;20076;-62
2021/07/04 03:24:16;;;;;;;0.00;0.00;;;;;;;10.55;93.11;101343.75;10350539;28;20022;-62
2021/07/04 03:29:16;;;;;;;0.10;0.10;;;;;;;10.79;91.80;101338.75;10368353;28;20018;-62
2021/07/04 03:34:17;;;;;;;0.10;0.10;;;;;;;11.01;90.51;101339.31;10367834;28;20129;-62
2021/07/04 03:39:17;;;;;;;0.10;0.10;;;;;;;11.15;90.42;101337.97;10367123;28;20395;-63
2021/07/04 03:44:18;;;;;;;0.10;0.10;;;;;;;12.09;88.70;101338.31;10375773;28;20033;-62
2021/07/04 03:49:18;;;;;;;0.10;0.10;;;;;;;13.05;84.68;101335.44;10375832;28;20072;-63
2021/07/04 03:54:19;;;;;;;0.10;0.10;;;;;;;13.93;82.45;101326.88;10375509;28;20287;-63
2021/07/04 03:59:19;;;;;;;0.10;0.10;;;;;;;14.93;80.59;101329.13;10375253;28;20025;-63
2021/07/04 04:04:19;;;;;;;0.10;0.10;;;;;;;16.00;75.77;101323.84;10374897;28;20022;-62
2021/07/04 04:09:19;;;;;;;0.10;0.10;;;;;;;17.01;74.94;101327.72;10375100;28;20030;-63
2021/07/04 04:14:20;;;;;;;0.10;0.10;;;;;;;17.66;70.46;101323.22;10374430;28;20041;-63
2021/07/04 04:19:20;;;;;;;0.10;0.10;;;;;;;18.24;70.81;101332.00;10375407;28;20109;-63
2021/07/04 04:24:20;;;;;;;0.10;0.10;;;;;;;19.15;68.70;101328.28;10374286;28;20026;-63
2021/07/04 04:29:21;;;;;;;0.10;0.10;;;;;;;20.05;66.90;101331.53;10374320;28;20017;-63
2021/07/04 04:34:21;;;;;;;0.10;0.10;;;;;;;20.89;63.77;101328.00;10374172;28;20026;-63
2021/07/04 04:39:22;;;;;;;0.10;0.10;;;;;;;21.68;61.22;101317.75;10373929;28;20018;-63
2021/07/04 04:44:22;;;;;;;0.10;0.10;;;;;;;21.39;61.35;101327.34;10373611;28;20033;-64
2021/07/04 04:49:22;;;;;;;0.10;0.10;;;;;;;21.45;60.48;101321.03;10373415;28;20281;-63
2021/07/04 04:54:23;;;;;;;0.10;0.10;;;;;;;21.69;59.71;101312.09;10354546;28;20034;-62
2021/07/04 04:59:23;;;;;;;0.10;0.10;;;;;;;22.06;59.01;101312.19;10373112;28;20029;-63
2021/07/04 05:04:23;;;;;;;0.10;0.10;;;;;;;22.19;58.66;101307.72;10372722;28;20026;-63
2021/07/04 05:09:24;;;;;;;0.10;0.10;;;;;;;22.49;59.04;101300.50;10373278;28;20022;-63
2021/07/04 05:14:25;;;;;;;0.10;0.10;;;;;;;22.78;58.42;101293.47;10372451;28;20508;-64
2021/07/04 05:19:25;;;;;;;0.10;0.10;;;;;;;23.24;58.92;101291.16;10372508;28;20084;-63
2021/07/04 05:24:25;;;;;;;0.10;0.10;;;;;;;23.91;56.18;101283.63;10372090;28;20400;-63
2021/07/04 05:29:26;;;;;;;0.10;0.10;;;;;;;24.44;55.50;101284.53;10372545;28;20488;-64
2021/07/04 05:34:27;;;;;;;0.10;0.10;;;;;;;24.89;54.37;101281.06;10371872;28;20034;-63
2021/07/04 05:39:29;;;;;;;0.10;0.10;;;;;;;25.12;54.24;101287.47;10354039;28;20356;-63
2021/07/04 05:44:29;;;;;;;0.10;0.10;;;;;;;25.60;53.81;101287.00;10371453;28;20065;-64
2021/07/04 05:49:29;;;;;;;0.10;0.10;;;;;;;25.77;53.17;101278.78;10392617;23;20096;-58
2021/07/04 05:54:29;;;;;;;0.10;0.10;;;;;;;25.95;53.04;101273.09;10450201;28;20086;-58
2021/07/04 05:59:30;;;;;;;0.10;0.10;;;;;;;26.38;52.28;101278.84;10450485;28;20016;-57
2021/07/04 06:04:30;;;;;;;0.10;0.10;;;;;;;26.78;51.50;101269.50;10449961;28;20039;-55
2021/07/04 06:09:30;;;;;;;0.10;0.10;;;;;;;26.52;51.51;101271.94;10451083;28;20060;-58
2021/07/04 06:14:31;;;;;;;0.10;0.10;;;;;;;26.52;52.47;101262.94;10449422;28;20310;-58
2021/07/04 06:19:31;;;;;;;0.10;0.10;;;;;;;26.26;51.32;101264.50;10445112;28;20025;-56
2021/07/04 06:24:31;;;;;;;0.10;0.10;;;;;;;25.97;53.29;101264.63;10446675;28;20028;-55
2021/07/04 06:29:32;;;;;;;0.10;0.10;;;;;;;25.81;54.35;101263.56;10449066;28;20170;-53
2021/07/04 06:34:32;;;;;;;0.10;0.10;;;;;;;26.22;52.54;101253.25;10448519;28;20358;-53
2021/07/04 06:39:32;;;;;;;0.10;0.10;;;;;;;25.27;53.69;101247.72;10448635;28;20021;-57
2021/07/04 06:44:33;;;;;;;0.10;0.10;;;;;;;25.38;53.86;101253.34;10448439;28;20267;-57
2021/07/04 06:49:33;;;;;;;0.10;0.10;;;;;;;26.45;52.21;101245.91;10447986;28;20047;-57
2021/07/04 06:54:34;;;;;;;0.10;0.10;;;;;;;26.78;46.65;101253.94;10447777;28;20056;-57
2021/07/04 06:59:34;;;;;;;0.10;0.10;;;;;;;26.81;48.39;101247.97;10448305;28;20021;-56
2021/07/04 07:04:34;;;;;;;0.10;0.10;;;;;;;27.47;45.92;101253.25;10447767;28;20267;-56
2021/07/04 07:09:34;;;;;;;0.10;0.10;;;;;;;27.91;47.54;101258.50;10447823;28;20158;-57
2021/07/04 07:14:35;;;;;;;0.10;0.10;;;;;;;27.61;45.90;101245.41;10447935;28;20029;-55
2021/07/04 07:19:35;;;;;;;0.10;0.10;;;;;;;27.58;47.77;101251.41;10456412;28;20039;-56
2021/07/04 07:24:36;;;;;;;0.10;0.10;;;;;;;28.06;47.54;101243.25;10456007;28;20032;-54
2021/07/04 07:29:36;;;;;;;0.10;0.10;;;;;;;27.95;46.25;101248.66;10456454;28;20025;-57
2021/07/04 07:34:36;;;;;;;0.10;0.10;;;;;;;28.39;44.23;101250.22;10455348;28;20043;-54
2021/07/04 07:39:37;;;;;;;0.10;0.10;;;;;;;28.38;47.12;101249.41;10455341;28;20025;-54
2021/07/04 07:44:37;;;;;;;0.10;0.10;;;;;;;28.18;44.75;101246.59;10455437;28;20029;-55
2021/07/04 07:49:37;;;;;;;0.10;0.10;;;;;;;28.07;46.49;101245.72;10455208;28;20056;-57
2021/07/04 07:54:38;;;;;;;0.10;0.10;;;;;;;27.56;47.29;101244.56;10454643;28;20475;-57
2021/07/04 07:59:38;;;;;;;0.10;0.10;;;;;;;27.83;48.52;101245.31;10454809;28;20028;-57
2021/07/04 08:04:39;;;;;;;0.10;0.10;;;;;;;28.39;47.29;101244.75;10454279;28;20443;-57
2021/07/04 08:09:39;;;;;;;0.10;0.10;;;;;;;28.96;45.92;101237.53;10436458;28;20373;-57
2021/07/04 08:14:42;;;;;;;0.10;0.10;;;;;;;29.50;46.41;101226.06;10453765;28;20459;-57
2021/07/04 08:19:43;;;;;;;0.10;0.10;;;;;;;30.49;45.02;101223.59;10453818;28;20499;-57
2021/07/04 08:24:43;;;;;;;0.10;0.10;;;;;;;30.40;43.82;101225.28;10453237;28;20021;-57
2021/07/04 08:29:43;;;;;;;0.10;0.10;;;;;;;30.97;44.11;101215.59;10453229;28;20025;-57
2021/07/04 08:34:44;;;;;;;0.10;0.10;;;;;;;30.76;40.86;101214.91;10453009;28;20029;-57
2021/07/04 08:39:44;;;;;;;0.10;0.10;;;;;;;30.99;42.98;101205.13;10452993;28;20036;-56
2021/07/04 08:44:53;;;;;;;0.10;0.10;;;;;;;31.27;42.14;101197.19;10452635;28;20059;-58
2021/07/04 08:49:56;;;;;;;0.10;0.10;;;;;;;31.10;43.39;101197.63;10434906;28;20064;-58
2021/07/04 08:54:57;;;;;;;0.10;0.10;;;;;;;29.78;44.36;101200.75;10452218;28;20025;-57
2021/07/04 08:59:57;;;;;;;0.10;0.10;;;;;;;28.87;47.71;101202.44;10453129;28;20017;-57
2021/07/04 09:05:01;;;;;;;0.10;0.10;;;;;;;27.47;48.47;101205.91;10452880;28;20052;-58
2021/07/04 09:10:06;;;;;;;0.10;0.10;;;;;;;26.97;51.92;101201.66;10452860;28;20422;-57
2021/07/04 09:15:29;;;;;;;0.10;0.10;;;;;;;27.23;51.65;101206.28;10452178;28;20348;-57
2021/07/04 09:20:29;;;;;;;0.10;0.10;;;;;;;27.23;52.08;101200.00;10451125;28;20028;-57
2021/07/04 09:25:37;;;;;;;0.10;0.10;;;;;;;26.90;52.52;101201.84;10456882;28;20025;-57
2021/07/04 09:31:02;;;;;;;0.10;0.10;;;;;;;26.35;50.50;101202.88;10459645;28;20017;-57
2021/07/04 09:36:08;;;;;;;0.10;0.10;;;;;;;26.00;53.66;101201.34;10476736;28;20073;-55
2021/07/04 09:41:12;;;;;;;0.10;0.10;;;;;;;26.17;53.22;101199.41;10469997;28;20032;-57
2021/07/04 09:46:14;;;;;;;0.10;0.10;;;;;;;26.27;50.18;101195.13;10478174;28;20117;-57
2021/07/04 09:51:19;;;;;;;0.10;0.10;;;;;;;26.39;51.41;101188.47;10463558;28;20039;-56
2021/07/04 09:56:30;;;;;;;0.10;0.10;;;;;;;26.23;51.87;101183.91;10460782;28;20028;-55
2021/07/04 10:01:38;;;;;;;0.10;0.10;;;;;;;25.88;54.07;101193.28;10460257;28;20536;-57
2021/07/04 10:06:49;;;;;;;0.10;0.10;;;;;;;25.73;53.85;101196.59;10449144;28;20962;-57
2021/07/04 10:11:49;;;;;;;0.10;0.10;;;;;;;25.63;54.39;101198.38;10475387;28;20032;-57
2021/07/04 10:16:50;;;;;;;0.10;0.10;;;;;;;25.56;55.09;101179.44;10460741;28;20029;-58
2021/07/04 10:21:55;;;;;;;0.10;0.10;;;;;;;25.58;55.34;101187.38;10469636;28;20519;-58
2021/07/04 10:26:58;;;;;;;0.10;0.10;;;;;;;25.57;52.76;101183.00;10455101;28;20017;-56
2021/07/04 10:32:13;;;;;;;0.10;0.10;;;;;;;25.72;53.17;101172.31;10458178;28;20017;-54
2021/07/04 10:37:19;;;;;;;0.10;0.10;;;;;;;26.10;51.78;101171.47;10467066;28;20090;-57
2021/07/04 10:42:19;;;;;;;0.10;0.10;;;;;;;26.26;53.10;101168.91;10464229;28;20075;-56
2021/07/04 10:47:26;;;;;;;0.10;0.10;;;;;;;26.74;56.27;101164.56;10464425;28;20114;-57
2021/07/04 10:52:50;;;;;;;0.00;0.00;;;;;;;27.05;52.56;101155.53;10473188;28;20032;-55
2021/07/04 10:57:50;;;;;;;0.00;0.00;;;;;;;26.83;49.11;101152.06;10471409;28;20116;-57
2021/07/04 11:03:02;;;;;;;0.10;0.10;;;;;;;26.94;52.07;101148.34;10473359;28;20115;-57
2021/07/04 11:08:26;;;;;;;0.10;0.10;;;;;;;27.14;53.22;101147.69;10466938;28;20024;-57
2021/07/04 11:13:49;;;;;;;0.10;0.10;;;;;;;27.56;51.06;101146.06;10453676;28;20057;-57
2021/07/04 11:18:54;;;;;;;0.10;0.10;;;;;;;27.60;49.87;101149.91;10464928;28;20095;-57
2021/07/04 11:24:15;;;;;;;0.10;0.10;;;;;;;27.20;50.30;101140.34;10455920;28;20021;-57
2021/07/04 11:29:15;;;;;;;0.10;0.10;;;;;;;27.01;50.69;101131.72;10466416;28;20096;-57
2021/07/04 11:34:16;;;;;;;0.10;0.10;;;;;;;26.80;50.40;101128.00;10469289;28;20128;-57
2021/07/04 11:39:16;;;;;;;0.10;0.10;;;;;;;26.31;53.28;101128.84;10460129;28;20104;-57
2021/07/04 11:44:19;;;;;;;0.10;0.10;;;;;;;26.08;52.64;101119.03;10470304;28;20351;-56
2021/07/04 11:49:27;;;;;;;0.10;0.10;;;;;;;25.84;51.68;101117.66;10475115;22;20075;-62
2021/07/04 11:54:30;;;;;;;0.10;0.10;;;;;;;25.56;54.61;101122.16;10410718;28;20456;-62
2021/07/04 11:59:31;;;;;;;0.10;0.10;;;;;;;25.33;55.42;101119.66;10407126;28;20021;-58
2021/07/04 12:04:36;;;;;;;0.10;0.10;;;;;;;25.18;58.14;101114.81;10412572;28;20040;-61
2021/07/04 12:09:48;;;;;;;0.10;0.10;;;;;;;25.16;58.69;101109.63;10396437;28;20116;-61
2021/07/04 12:15:05;;;;;;;0.10;0.10;;;;;;;25.20;56.91;101105.31;10412999;28;20048;-60
2021/07/04 12:20:22;;;;;;;0.10;0.10;;;;;;;25.38;57.47;101100.66;10401542;28;20025;-60
2021/07/04 12:25:39;;;;;;;0.10;0.10;;;;;;;25.23;56.17;101098.53;10449562;28;20032;-61
2021/07/04 12:30:50;;;;;;;0.10;0.10;;;;;;;24.80;56.96;101098.09;10454164;28;20017;-61
2021/07/04 12:35:54;;;;;;;0.10;0.10;;;;;;;25.05;58.71;101097.69;10444847;28;20079;-60
2021/07/04 12:41:04;;;;;;;0.10;0.10;;;;;;;25.92;54.12;101087.22;10453821;28;20018;-61
2021/07/04 12:46:28;;;;;;;0.10;0.10;;;;;;;26.70;51.92;101087.72;10453744;28;20028;-61
2021/07/04 12:51:30;;;;;;;0.10;0.10;;;;;;;26.60;50.89;101088.47;10444434;28;20061;-62
2021/07/04 12:56:32;;;;;;;;;;;;;;;26.32;53.04;101089.53;10450661;28;20017;-62
2021/07/04 13:01:41;;;;;;;0.10;0.10;;;;;;;26.19;53.31;101073.56;10453038;28;19908;-61
2021/07/04 13:07:01;;;;;;;0.10;0.10;;;;;;;26.30;55.46;101069.06;10452986;28;20024;-61
2021/07/04 13:12:02;;;;;;;0.00;0.00;;;;;;;27.03;50.44;101074.88;10443999;28;20056;-61
2021/07/04 13:17:05;;;;;;;0.10;0.10;;;;;;;27.47;50.78;101061.75;10414477;28;20024;-61
2021/07/04 13:22:17;;;;;;;0.10;0.10;;;;;;;27.73;52.33;101067.34;10427505;28;20171;-61
2021/07/04 13:27:22;;;;;;;0.10;0.10;;;;;;;27.81;51.67;101047.69;10451235;28;20013;-61
2021/07/04 13:32:27;;;;;;;0.10;0.10;;;;;;;27.56;49.98;101056.59;10433927;28;20037;-62
2021/07/04 13:37:28;;;;;;;0.10;0.10;;;;;;;27.13;50.15;101053.06;10451617;28;20056;-62
2021/07/04 13:42:32;;;;;;;0.00;0.00;;;;;;;26.58;50.93;101052.38;10433561;28;20025;-61
2021/07/04 13:47:32;;;;;;;0.10;0.10;;;;;;;26.78;51.65;101049.00;10422985;28;20021;-62
2021/07/04 13:52:32;;;;;;;0.07;0.07;;;;;;;27.02;50.07;101043.13;10427107;28;20468;-62
2021/07/04 13:57:33;;;;;;;0.10;0.10;;;;;;;26.72;52.48;101036.38;10451414;28;20640;-62
2021/07/04 14:02:33;;;;;;;0.10;0.10;;;;;;;26.23;53.76;101041.13;10450063;28;20230;-61
2021/07/04 14:07:34;;;;;;;0.10;0.10;;;;;;;25.87;53.68;101029.84;10451341;28;20056;-60
2021/07/04 14:12:35;;;;;;;0.10;0.10;;;;;;;26.08;55.68;101028.97;10418557;28;20122;-61
2021/07/04 14:17:36;;;;;;;0.13;0.13;;;;;;;26.40;47.90;101014.50;10409605;28;20494;-60
2021/07/04 14:22:37;;;;;;;0.10;0.10;;;;;;;26.48;52.34;101008.56;10421324;28;20112;-61
2021/07/04 14:27:38;;;;;;;0.10;0.10;;;;;;;26.14;51.71;101017.00;10409124;28;20044;-61
2021/07/04 14:32:38;;;;;;;0.10;0.10;;;;;;;25.51;55.80;101015.72;10408202;28;20026;-61
2021/07/04 14:37:40;;;;;;;0.10;0.10;;;;;;;24.92;56.40;101015.47;10403779;28;20337;-60
2021/07/04 14:42:41;;;;;;;0.10;0.10;;;;;;;24.33;57.53;101007.69;10389464;28;20272;-60
2021/07/04 14:47:41;;;;;;;0.10;0.10;;;;;;;24.14;58.40;100999.75;10408668;28;20496;-61
2021/07/04 14:52:43;;;;;;;0.00;0.00;;;;;;;24.08;60.57;100997.19;10427321;28;20293;-61
2021/07/04 14:57:44;;;;;;;0.10;0.10;;;;;;;24.11;60.61;100985.81;10442660;28;20528;-61
2021/07/04 15:02:48;;;;;;;0.10;0.10;;;;;;;24.36;60.15;100982.69;10447858;28;20052;-62
2021/07/04 15:07:49;;;;;;;0.00;0.00;;;;;;;24.50;57.65;100973.16;10448949;28;20063;-61
2021/07/04 15:12:51;;;;;;;0.10;0.10;;;;;;;24.48;55.67;100958.16;10447169;28;20033;-62
2021/07/04 15:17:51;;;;;;;0.10;0.10;;;;;;;24.30;55.45;100965.47;10446414;28;20154;-62
2021/07/04 15:22:55;;;;;;;0.10;0.10;;;;;;;24.14;57.98;100975.28;10430482;28;20163;-62
2021/07/04 15:27:56;;;;;;;0.10;0.10;;;;;;;23.95;61.37;100977.38;10446302;28;20378;-63
2021/07/04 15:32:57;;;;;;;0.10;0.10;;;;;;;23.84;61.97;100964.66;10441235;28;20116;-61
2021/07/04 15:37:58;;;;;;;0.10;0.10;;;;;;;23.77;60.56;100961.25;10453734;28;20021;-62
2021/07/04 15:42:58;;;;;;;0.10;0.10;;;;;;;23.84;62.44;100961.09;10456599;28;20102;-62
2021/07/04 15:47:58;;;;;;;0.07;0.07;;;;;;;24.02;59.31;100957.34;10456784;28;20464;-61
2021/07/04 15:53:04;;;;;;;0.10;0.10;;;;;;;24.11;60.24;100958.59;10445188;28;20043;-61
2021/07/04 15:58:06;;;;;;;0.10;0.10;;;;;;;24.06;60.35;100950.34;10456097;28;20611;-62
2021/07/04 16:03:12;;;;;;;0.10;0.10;;;;;;;23.94;56.65;100945.00;10455807;28;20047;-59
2021/07/04 16:08:12;;;;;;;0.10;0.10;;;;;;;24.13;58.74;100942.84;10455822;28;20105;-61
2021/07/04 16:13:12;;;;;;;0.10;0.10;;;;;;;24.50;58.97;100937.75;10453580;28;20124;-62
2021/07/04 16:18:13;;;;;;;0.10;0.10;;;;;;;24.82;55.91;100942.59;10455016;28;20056;-63
2021/07/04 16:23:13;;;;;;;0.00;0.00;;;;;;;24.81;54.29;100940.91;10450948;28;20399;-62
2021/07/04 16:28:14;;;;;;;0.10;0.10;;;;;;;24.54;57.71;100944.34;10454656;28;20368;-62
2021/07/04 16:33:14;;;;;;;0.10;0.10;;;;;;;24.37;58.67;100936.16;10423971;28;20033;-63
2021/07/04 16:38:15;;;;;;;0.10;0.10;;;;;;;24.37;60.29;100938.06;10413901;28;20025;-63
2021/07/04 16:43:15;;;;;;;0.00;0.00;;;;;;;24.39;58.60;100927.75;10412520;28;20041;-63
2021/07/04 16:48:16;;;;;;;0.10;0.10;;;;;;;24.47;59.47;100921.09;10413103;28;20384;-63
2021/07/04 16:53:16;;;;;;;0.10;0.10;;;;;;;24.49;59.85;100916.22;10430921;28;20032;-62
2021/07/04 16:58:17;;;;;;;0.00;0.00;;;;;;;24.44;59.67;100919.72;10453508;28;20399;-63
2021/07/04 17:03:17;;;;;;;0.10;0.10;;;;;;;24.37;62.65;100919.81;10450628;28;20024;-63
2021/07/04 17:08:18;;;;;;;0.10;0.10;;;;;;;24.34;62.50;100920.31;10435414;28;20361;-62
2021/07/04 17:13:19;;;;;;;0.00;0.00;;;;;;;24.39;60.98;100911.41;10452664;28;20017;-62
2021/07/04 17:18:19;;;;;;;0.00;0.00;;;;;;;24.30;60.66;100902.03;10452916;28;20024;-62
2021/07/04 17:23:19;;;;;;;0.00;0.00;;;;;;;24.16;61.46;100905.06;10440805;28;20017;-62
2021/07/04 17:28:20;;;;;;;0.00;0.00;;;;;;;24.04;62.48;100911.69;10440702;28;20031;-62
2021/07/04 17:33:20;;;;;;;0.00;0.00;;;;;;;23.89;62.97;100904.91;10450701;28;20446;-63
2021/07/04 17:38:20;;;;;;;0.10;0.10;;;;;;;23.80;63.74;100903.66;10430029;28;20021;-62
2021/07/04 17:43:21;;;;;;;0.10;0.10;;;;;;;23.66;65.22;100905.00;10450716;28;20032;-62
2021/07/04 17:48:21;;;;;;;0.10;0.10;;;;;;;23.52;66.52;100912.63;10451483;28;20035;-62
2021/07/04 17:53:22;;;;;;;0.10;0.10;;;;;;;23.34;66.76;100910.94;10448550;22;20542;-63
2021/07/04 17:58:22;;;;;;;0.10;0.10;;;;;;;23.17;68.04;100916.28;10450825;28;20111;-62
2021/07/04 18:03:23;;;;;;;0.10;0.10;;;;;;;23.03;69.04;100923.06;10450666;28;20039;-62
2021/07/04 18:08:23;;;;;;;0.10;0.10;;;;;;;22.95;69.64;100934.28;10450986;28;20086;-62
2021/07/04 18:13:23;;;;;;;0.10;0.10;;;;;;;22.89;68.93;100927.06;10449941;28;20016;-62
2021/07/04 18:18:24;;;;;;;0.10;0.10;;;;;;;22.80;70.97;100929.31;10450701;28;20328;-62
2021/07/04 18:23:24;;;;;;;0.10;0.10;;;;;;;22.68;69.74;100929.31;10439947;28;20032;-62
2021/07/04 18:28:24;;;;;;;0.10;0.10;;;;;;;22.53;69.70;100931.69;10388130;28;20081;-62
2021/07/04 18:33:25;;;;;;;0.10;0.10;;;;;;;22.37;71.21;100922.38;10444575;28;20267;-62
2021/07/04 18:38:26;;;;;;;0.00;0.00;;;;;;;22.15;69.12;100925.59;10449368;28;20021;-62
2021/07/04 18:43:27;;;;;;;0.10;0.10;;;;;;;21.88;68.56;100932.53;10447591;28;20032;-61
2021/07/04 18:48:28;;;;;;;0.10;0.10;;;;;;;21.55;70.14;100922.13;10449720;28;20487;-62
2021/07/04 18:53:28;;;;;;;0.10;0.10;;;;;;;21.29;70.26;100925.97;10442696;28;20021;-62
2021/07/04 18:58:29;;;;;;;0.10;0.10;;;;;;;21.02;70.95;100934.44;10449357;28;20144;-61
2021/07/04 19:03:29;;;;;;;0.10;0.10;;;;;;;20.79;71.59;100941.31;10448729;28;20417;-61
2021/07/04 19:08:31;;;;;;;0.10;0.10;;;;;;;20.57;72.52;100940.94;10449135;28;20024;-61
2021/07/04 19:13:31;;;;;;;0.03;0.03;;;;;;;20.38;73.50;100947.31;10402478;28;20044;-61
2021/07/04 19:18:31;;;;;;;0.10;0.10;;;;;;;20.20;74.05;100941.84;10444750;28;20021;-60
2021/07/04 19:23:32;;;;;;;0.10;0.10;;;;;;;20.04;74.82;100945.91;10450088;28;20485;-61
2021/07/04 19:28:34;;;;;;;0.10;0.10;;;;;;;19.89;74.86;100954.31;10456901;28;20025;-60
2021/07/04 19:33:34;;;;;;;0.10;0.10;;;;;;;19.78;75.45;100957.69;10456682;28;20024;-60
2021/07/04 19:38:36;;;;;;;0.10;0.10;;;;;;;19.70;75.22;100969.63;10455565;28;20021;-61
2021/07/04 19:43:39;;;;;;;0.10;0.10;;;;;;;19.81;74.94;101014.88;10455066;28;20028;-60
2021/07/04 19:48:42;;;;;;;0.03;0.03;;;;;;;19.94;74.20;101034.78;10455129;28;20017;-61
2021/07/04 19:53:42;;;;;;;0.00;0.00;;;;;;;19.95;73.98;101048.06;10448610;28;20372;-61
2021/07/04 19:58:43;;;;;;;0.10;0.10;;;;;;;19.86;73.99;101050.19;10456454;28;20021;-61
2021/07/04 20:04:06;;;;;;;0.10;0.10;;;;;;;19.68;74.79;101058.16;10455461;28;20033;-61
2021/07/04 20:09:08;;;;;;;0.10;0.10;;;;;;;19.45;75.22;101051.34;10455911;28;20029;-61
2021/07/04 20:14:09;;;;;;;0.10;0.10;;;;;;;19.29;76.00;101051.81;10454951;28;20051;-61
2021/07/04 20:19:09;;;;;;;0.10;0.10;;;;;;;19.16;76.51;101054.53;10455271;28;20013;-61
2021/07/04 20:24:09;;;;;;;0.10;0.10;;;;;;;19.01;76.68;101076.34;10447199;28;20025;-61
2021/07/04 20:29:10;;;;;;;0.10;0.10;;;;;;;18.90;77.86;101075.09;10454772;28;20488;-61
2021/07/04 20:34:10;;;;;;;0.00;0.00;;;;;;;18.77;78.05;101075.13;10454630;28;20495;-61
2021/07/04 20:39:11;;;;;;;0.10;0.10;;;;;;;18.61;78.85;101075.47;10454463;28;20532;-61
2021/07/04 20:44:12;;;;;;;0.10;0.10;;;;;;;18.44;79.40;101073.19;10454106;28;20028;-61
2021/07/04 20:49:15;;;;;;;0.10;0.10;;;;;;;18.27;79.96;101072.75;10454216;28;20434;-61
2021/07/04 20:54:15;;;;;;;0.10;0.10;;;;;;;18.16;80.46;101067.13;10446286;28;20029;-61
2021/07/04 20:59:15;;;;;;;0.10;0.10;;;;;;;18.04;81.14;101064.19;10454054;28;20020;-61
2021/07/04 21:04:16;;;;;;;0.10;0.10;;;;;;;17.94;81.56;101052.94;10453117;28;20251;-61
2021/07/04 21:09:16;;;;;;;0.10;0.10;;;;;;;17.85;81.80;101044.19;10454142;28;20033;-61
2021/07/04 21:14:16;;;;;;;0.10;0.10;;;;;;;17.41;81.70;101054.31;10452972;28;20021;-61
2021/07/04 21:19:17;;;;;;;0.10;0.10;;;;;;;17.08;83.83;101048.75;10454081;28;20053;-61
2021/07/04 21:24:17;;;;;;;0.10;0.10;;;;;;;16.96;84.81;101055.69;10445628;28;20108;-61
2021/07/04 21:29:18;;;;;;;0.10;0.10;;;;;;;16.98;85.20;101040.16;10452551;28;20029;-61
2021/07/04 21:34:18;;;;;;;0.10;0.10;;;;;;;16.96;84.93;101043.06;10451304;28;20020;-60
2021/07/04 21:39:18;;;;;;;0.10;0.10;;;;;;;16.86;85.60;101033.66;10452448;28;20013;-60
2021/07/04 21:44:19;;;;;;;0.10;0.10;;;;;;;16.79;86.84;101030.94;10451896;28;20395;-61
2021/07/04 21:49:19;;;;;;;0.13;0.13;;;;;;;16.73;86.83;101031.69;10452328;28;20086;-60
2021/07/04 21:54:19;;;;;;;0.10;0.10;;;;;;;16.62;86.99;101038.41;10444367;28;20082;-61
2021/07/04 21:59:20;;;;;;;0.10;0.10;;;;;;;16.50;87.39;101030.03;10452238;28;20024;-61
2021/07/04 22:04:20;;;;;;;0.10;0.10;;;;;;;16.39;87.62;101024.34;10451905;28;20032;-61
2021/07/04 22:09:20;;;;;;;0.10;0.10;;;;;;;16.32;87.89;101029.66;10452442;28;20053;-60
2021/07/04 22:14:21;;;;;;;0.10;0.10;;;;;;;16.35;88.06;101029.28;10451690;28;20028;-61
2021/07/04 22:19:21;;;;;;;0.00;0.00;;;;;;;16.40;88.21;101032.22;10451722;28;20016;-61
2021/07/04 22:24:21;;;;;;;0.10;0.10;;;;;;;16.48;87.81;101025.88;10443630;28;20399;-61
2021/07/04 22:29:22;;;;;;;0.10;0.10;;;;;;;16.57;87.61;101024.72;10450526;28;20410;-61
2021/07/04 22:34:22;;;;;;;0.10;0.10;;;;;;;16.67;87.88;101021.72;10450118;28;20024;-61
2021/07/04 22:39:23;;;;;;;0.10;0.10;;;;;;;16.69;87.91;101019.63;10450951;28;20025;-59
2021/07/04 22:44:23;;;;;;;0.10;0.10;;;;;;;16.66;88.46;101015.47;10449568;28;20025;-60
2021/07/04 22:49:23;;;;;;;0.10;0.10;;;;;;;16.62;88.10;101011.53;10449979;28;20021;-61
2021/07/04 22:54:24;;;;;;;0.10;0.10;;;;;;;16.56;88.62;101006.09;10442091;28;20271;-61
2021/07/04 22:59:24;;;;;;;0.00;0.00;;;;;;;16.55;88.83;101001.72;10450131;28;20017;-61
2021/07/04 23:04:24;;;;;;;0.10;0.10;;;;;;;16.58;89.05;100994.13;10449328;28;20263;-59
2021/07/04 23:09:24;;;;;;;0.10;0.10;;;;;;;16.65;88.60;100973.47;10448728;28;20377;-60